createdAt,value
2019-03-18T00:00:05.019Z,4.50
2019-03-18T00:01:04.978Z,4.50
2019-03-18T00:02:07.574Z,4.50
2019-03-18T00:03:05.499Z,4.50
2019-03-18T00:04:04.804Z,4.50
2019-03-18T00:05:04.923Z,4.50
2019-03-18T00:06:05.108Z,4.50
2019-03-18T00:07:05.159Z,4.40
2019-03-18T00:08:07.688Z,4.40
2019-03-18T00:09:05.679Z,4.40
2019-03-18T00:10:04.636Z,4.40
2019-03-18T00:11:04.615Z,4.40
2019-03-18T00:12:04.685Z,4.30
2019-03-18T00:13:04.683Z,4.30
2019-03-18T00:14:07.261Z,4.30
2019-03-18T00:15:05.181Z,4.30
2019-03-18T00:16:05.368Z,4.30
2019-03-18T00:17:05.465Z,4.30
2019-03-18T00:18:08.002Z,4.20
2019-03-18T00:19:07.404Z,4.20
2019-03-18T00:20:05.248Z,4.20
2019-03-18T00:21:05.240Z,4.20
2019-03-18T00:22:07.919Z,4.20
2019-03-18T00:23:07.371Z,4.20
2019-03-18T00:24:05.363Z,4.20
2019-03-18T00:25:05.446Z,4.20
2019-03-18T00:26:05.493Z,4.10
2019-03-18T00:27:07.175Z,4.10
2019-03-18T00:28:05.014Z,4.10
2019-03-18T00:29:07.563Z,4.10
2019-03-18T00:30:05.510Z,4.10
2019-03-18T00:31:05.584Z,4.10
2019-03-18T00:32:05.606Z,4.10
2019-03-18T00:33:04.634Z,4.10
2019-03-18T00:34:04.707Z,4.00
2019-03-18T00:35:04.829Z,4.10
2019-03-18T00:36:05.073Z,4.10
2019-03-18T00:37:05.058Z,4.10
2019-03-18T00:38:05.139Z,4.10
2019-03-18T00:39:05.135Z,4.10
2019-03-18T00:40:05.253Z,4.10
2019-03-18T00:41:05.252Z,4.10
2019-03-18T00:42:05.298Z,4.10
2019-03-18T00:43:10.328Z,4.10
2019-03-18T00:44:05.303Z,4.10
2019-03-18T00:45:14.463Z,4.10
2019-03-18T00:46:05.562Z,4.10
2019-03-18T00:47:05.559Z,4.10
2019-03-18T00:48:05.524Z,4.20
2019-03-18T00:49:08.291Z,4.20
2019-03-18T00:50:05.150Z,4.20
2019-03-18T00:51:05.295Z,4.20
2019-03-18T00:52:05.418Z,4.20
2019-03-18T00:53:07.948Z,4.20
2019-03-18T00:54:04.790Z,4.20
2019-03-18T00:55:04.874Z,4.20
2019-03-18T00:56:05.022Z,4.20
2019-03-18T00:57:07.660Z,4.20
2019-03-18T00:58:05.605Z,4.20
2019-03-18T00:59:04.670Z,4.20
2019-03-18T01:00:04.820Z,4.20
2019-03-18T01:01:04.983Z,4.20
2019-03-18T01:02:05.080Z,4.20
2019-03-18T01:03:05.053Z,4.20
2019-03-18T01:04:05.015Z,4.20
2019-03-18T01:05:05.101Z,4.20
2019-03-18T01:06:05.126Z,4.20
2019-03-18T01:07:07.661Z,4.30
2019-03-18T01:08:08.111Z,4.20
2019-03-18T01:09:07.443Z,4.20
2019-03-18T01:10:05.437Z,4.20
2019-03-18T01:11:05.476Z,4.20
2019-03-18T01:12:08.143Z,4.20
2019-03-18T01:13:05.088Z,4.20
2019-03-18T01:14:05.068Z,4.20
2019-03-18T01:15:05.069Z,4.20
2019-03-18T01:16:05.106Z,4.20
2019-03-18T01:17:05.239Z,4.20
2019-03-18T01:18:05.253Z,4.20
2019-03-18T01:19:05.355Z,4.20
2019-03-18T01:20:05.371Z,4.20
2019-03-18T01:21:07.999Z,4.20
2019-03-18T01:22:04.831Z,4.30
2019-03-18T01:23:04.840Z,4.30
2019-03-18T01:24:04.822Z,4.20
2019-03-18T01:25:09.921Z,4.20
2019-03-18T01:26:04.734Z,4.20
2019-03-18T01:27:07.275Z,4.20
2019-03-18T01:28:05.136Z,4.20
2019-03-18T01:29:07.697Z,4.20
2019-03-18T01:30:08.155Z,4.20
2019-03-18T01:31:07.665Z,4.20
2019-03-18T01:32:08.220Z,4.30
2019-03-18T01:33:07.825Z,4.20
2019-03-18T01:34:07.294Z,4.20
2019-03-18T01:35:05.216Z,4.20
2019-03-18T01:36:07.779Z,4.20
2019-03-18T01:37:07.116Z,4.20
2019-03-18T01:38:07.591Z,4.20
2019-03-18T01:39:05.461Z,4.20
2019-03-18T01:40:05.543Z,4.20
2019-03-18T01:41:05.561Z,4.20
2019-03-18T01:42:08.182Z,4.10
2019-03-18T01:43:04.995Z,4.10
2019-03-18T01:44:05.316Z,4.10
2019-03-18T01:45:05.448Z,4.10
2019-03-18T01:46:05.475Z,4.10
2019-03-18T01:47:05.541Z,4.00
2019-03-18T01:48:08.253Z,4.00
2019-03-18T01:49:05.174Z,4.00
2019-03-18T01:50:07.850Z,4.00
2019-03-18T01:51:04.715Z,4.00
2019-03-18T01:52:04.792Z,4.00
2019-03-18T01:53:07.307Z,3.90
2019-03-18T01:54:07.940Z,3.90
2019-03-18T01:55:04.914Z,3.90
2019-03-18T01:56:10.022Z,3.90
2019-03-18T01:57:04.879Z,3.90
2019-03-18T01:58:04.951Z,3.90
2019-03-18T01:59:07.700Z,3.80
2019-03-18T02:00:05.591Z,3.80
2019-03-18T02:01:04.644Z,3.80
2019-03-18T02:02:04.727Z,3.80
2019-03-18T02:03:04.915Z,3.80
2019-03-18T02:04:05.047Z,3.70
2019-03-18T02:05:05.097Z,3.80
2019-03-18T02:06:05.056Z,3.70
2019-03-18T02:07:05.030Z,3.70
2019-03-18T02:08:07.799Z,3.70
2019-03-18T02:09:04.604Z,3.70
2019-03-18T02:10:12.342Z,3.60
2019-03-18T02:11:05.154Z,3.60
2019-03-18T02:12:05.215Z,3.70
2019-03-18T02:13:04.653Z,3.70
2019-03-18T02:14:07.269Z,3.70
2019-03-18T02:15:05.143Z,3.60
2019-03-18T02:16:07.683Z,3.60
2019-03-18T02:17:05.591Z,3.70
2019-03-18T02:18:05.647Z,3.60
2019-03-18T02:19:07.264Z,3.60
2019-03-18T02:20:05.111Z,3.60
2019-03-18T02:21:05.088Z,3.70
2019-03-18T02:22:05.087Z,3.60
2019-03-18T02:23:07.667Z,3.60
2019-03-18T02:24:05.509Z,3.60
2019-03-18T02:25:08.100Z,3.60
2019-03-18T02:26:05.006Z,3.60
2019-03-18T02:27:05.000Z,3.60
2019-03-18T02:28:07.540Z,3.60
2019-03-18T02:29:05.514Z,3.60
2019-03-18T02:30:05.609Z,3.60
2019-03-18T02:31:05.579Z,3.60
2019-03-18T02:32:08.188Z,3.60
2019-03-18T02:33:07.645Z,3.60
2019-03-18T02:34:05.566Z,3.60
2019-03-18T02:35:08.066Z,3.60
2019-03-18T02:36:04.909Z,3.60
2019-03-18T02:37:05.123Z,3.60
2019-03-18T02:38:07.786Z,3.60
2019-03-18T02:39:07.281Z,3.60
2019-03-18T02:40:05.179Z,3.60
2019-03-18T02:41:05.227Z,3.60
2019-03-18T02:42:05.352Z,3.60
2019-03-18T02:43:05.316Z,3.60
2019-03-18T02:44:05.387Z,3.60
2019-03-18T02:45:05.433Z,3.60
2019-03-18T02:46:10.302Z,3.60
2019-03-18T02:47:04.931Z,3.50
2019-03-18T02:48:04.976Z,3.50
2019-03-18T02:49:04.960Z,3.50
2019-03-18T02:50:04.928Z,3.50
2019-03-18T02:51:04.936Z,3.50
2019-03-18T02:52:04.926Z,3.50
2019-03-18T02:53:04.940Z,3.50
2019-03-18T02:54:04.920Z,3.50
2019-03-18T02:55:07.486Z,3.50
2019-03-18T02:56:05.361Z,3.50
2019-03-18T02:57:05.449Z,3.40
2019-03-18T02:58:05.427Z,3.40
2019-03-18T02:59:08.082Z,3.40
2019-03-18T03:00:04.977Z,3.40
2019-03-18T03:01:05.053Z,3.40
2019-03-18T03:02:05.021Z,3.40
2019-03-18T03:03:05.102Z,3.40
2019-03-18T03:04:05.080Z,3.40
2019-03-18T03:05:05.077Z,3.40
2019-03-18T03:06:07.606Z,3.40
2019-03-18T03:07:05.418Z,3.30
2019-03-18T03:08:05.373Z,3.30
2019-03-18T03:09:05.647Z,3.40
2019-03-18T03:10:04.801Z,3.30
2019-03-18T03:11:05.071Z,3.30
2019-03-18T03:12:05.150Z,3.30
2019-03-18T03:13:05.213Z,3.30
2019-03-18T03:14:05.367Z,3.30
2019-03-18T03:15:07.927Z,3.30
2019-03-18T03:16:04.816Z,3.30
2019-03-18T03:17:04.830Z,3.40
2019-03-18T03:18:07.377Z,3.30
2019-03-18T03:19:05.254Z,3.30
2019-03-18T03:20:05.287Z,3.30
2019-03-18T03:21:05.590Z,3.40
2019-03-18T03:22:05.586Z,3.30
2019-03-18T03:23:07.169Z,3.40
2019-03-18T03:24:10.166Z,3.40
2019-03-18T03:25:05.069Z,3.40
2019-03-18T03:26:07.599Z,3.40
2019-03-18T03:27:10.506Z,3.40
2019-03-18T03:28:05.360Z,3.40
2019-03-18T03:29:05.420Z,3.40
2019-03-18T03:30:05.542Z,3.40
2019-03-18T03:31:07.121Z,3.40
2019-03-18T03:32:05.004Z,3.40
2019-03-18T03:33:05.033Z,3.40
2019-03-18T03:34:05.169Z,3.40
2019-03-18T03:35:05.325Z,3.40
2019-03-18T03:36:08.041Z,3.50
2019-03-18T03:37:04.886Z,3.50
2019-03-18T03:38:07.497Z,3.40
2019-03-18T03:39:05.341Z,3.40
2019-03-18T03:40:07.944Z,3.40
2019-03-18T03:41:07.305Z,3.40
2019-03-18T03:42:07.671Z,3.50
2019-03-18T03:43:05.492Z,3.50
2019-03-18T03:44:04.779Z,3.50
2019-03-18T03:45:04.914Z,3.40
2019-03-18T03:46:07.502Z,3.50
2019-03-18T03:47:05.490Z,3.50
2019-03-18T03:48:08.188Z,3.50
2019-03-18T03:49:05.011Z,3.50
2019-03-18T03:50:07.531Z,3.50
2019-03-18T03:51:05.538Z,3.50
2019-03-18T03:52:05.654Z,3.50
2019-03-18T03:53:04.637Z,3.50
2019-03-18T03:54:04.614Z,3.50
2019-03-18T03:55:04.774Z,3.50
2019-03-18T03:56:07.335Z,3.50
2019-03-18T03:57:10.324Z,3.50
2019-03-18T03:58:05.295Z,3.50
2019-03-18T03:59:05.304Z,3.50
2019-03-18T04:00:07.947Z,3.50
2019-03-18T04:01:04.796Z,3.50
2019-03-18T04:02:04.816Z,3.50
2019-03-18T04:03:04.835Z,3.50
2019-03-18T04:04:04.804Z,3.50
2019-03-18T04:05:07.447Z,3.50
2019-03-18T04:06:07.870Z,3.50
2019-03-18T04:07:04.802Z,3.30
2019-03-18T04:08:04.857Z,3.50
2019-03-18T04:09:04.822Z,3.50
2019-03-18T04:10:04.789Z,3.50
2019-03-18T04:11:08.141Z,3.50
2019-03-18T04:12:09.914Z,3.50
2019-03-18T04:13:07.279Z,3.50
2019-03-18T04:14:07.906Z,3.50
2019-03-18T04:15:04.810Z,3.50
2019-03-18T04:16:04.784Z,3.50
2019-03-18T04:17:04.888Z,3.50
2019-03-18T04:18:04.961Z,3.50
2019-03-18T04:19:07.481Z,3.60
2019-03-18T04:20:05.349Z,3.50
2019-03-18T04:21:05.393Z,3.60
2019-03-18T04:22:05.406Z,3.50
2019-03-18T04:23:05.436Z,3.60
2019-03-18T04:24:05.557Z,3.50
2019-03-18T04:25:04.607Z,3.50
2019-03-18T04:26:04.610Z,3.50
2019-03-18T04:27:07.095Z,3.60
2019-03-18T04:28:07.537Z,3.50
2019-03-18T04:29:08.045Z,3.50
2019-03-18T04:30:07.521Z,3.60
2019-03-18T04:31:05.589Z,3.50
2019-03-18T04:32:04.704Z,3.60
2019-03-18T04:33:07.363Z,3.50
2019-03-18T04:34:05.310Z,3.50
2019-03-18T04:35:05.340Z,3.50
2019-03-18T04:36:05.305Z,3.50
2019-03-18T04:37:07.869Z,3.50
2019-03-18T04:38:04.704Z,3.50
2019-03-18T04:39:04.728Z,3.60
2019-03-18T04:40:04.727Z,3.60
2019-03-18T04:41:04.736Z,3.50
2019-03-18T04:42:04.748Z,3.50
2019-03-18T04:43:04.852Z,3.50
2019-03-18T04:44:05.084Z,3.50
2019-03-18T04:45:07.715Z,3.50
2019-03-18T04:46:04.746Z,3.50
2019-03-18T04:47:13.626Z,3.50
2019-03-18T04:48:05.556Z,3.50
2019-03-18T04:49:05.542Z,3.50
2019-03-18T04:50:10.617Z,3.50
2019-03-18T04:51:08.007Z,3.60
2019-03-18T04:52:04.860Z,3.50
2019-03-18T04:53:04.855Z,3.50
2019-03-18T04:54:04.905Z,3.50
2019-03-18T04:55:07.468Z,3.50
2019-03-18T04:56:05.296Z,3.50
2019-03-18T04:57:05.403Z,3.50
2019-03-18T04:58:05.387Z,3.50
2019-03-18T04:59:05.381Z,3.50
2019-03-18T05:00:05.351Z,3.50
2019-03-18T05:01:08.016Z,3.50
2019-03-18T05:02:04.862Z,3.50
2019-03-18T05:03:04.864Z,3.50
2019-03-18T05:04:05.171Z,3.50
2019-03-18T05:05:05.216Z,3.50
2019-03-18T05:06:05.361Z,3.50
2019-03-18T05:07:05.398Z,3.50
2019-03-18T05:08:08.073Z,3.50
2019-03-18T05:09:04.985Z,3.50
2019-03-18T05:10:07.633Z,3.50
2019-03-18T05:11:08.176Z,3.50
2019-03-18T05:12:07.789Z,3.50
2019-03-18T05:13:04.605Z,3.50
2019-03-18T05:14:05.570Z,3.50
2019-03-18T05:15:05.581Z,3.50
2019-03-18T05:16:05.620Z,3.50
2019-03-18T05:17:08.204Z,3.50
2019-03-18T05:18:05.068Z,3.50
2019-03-18T05:19:07.709Z,3.40
2019-03-18T05:20:04.672Z,3.40
2019-03-18T05:21:07.183Z,3.40
2019-03-18T05:22:05.054Z,3.40
2019-03-18T05:23:05.001Z,3.40
2019-03-18T05:24:07.706Z,3.40
2019-03-18T05:25:08.721Z,3.40
2019-03-18T05:26:08.119Z,3.40
2019-03-18T05:27:05.137Z,3.40
2019-03-18T05:28:05.232Z,3.30
2019-03-18T05:29:07.832Z,3.30
2019-03-18T05:30:07.319Z,3.30
2019-03-18T05:31:05.240Z,3.30
2019-03-18T05:32:05.237Z,3.30
2019-03-18T05:33:05.280Z,3.30
2019-03-18T05:34:05.317Z,3.40
2019-03-18T05:35:05.351Z,3.30
2019-03-18T05:36:08.067Z,3.30
2019-03-18T05:37:04.977Z,3.30
2019-03-18T05:38:04.972Z,3.30
2019-03-18T05:39:04.929Z,3.30
2019-03-18T05:40:04.862Z,3.30
2019-03-18T05:41:04.904Z,3.30
2019-03-18T05:42:04.961Z,3.30
2019-03-18T05:43:05.093Z,3.30
2019-03-18T05:44:07.913Z,3.30
2019-03-18T05:45:05.535Z,3.30
2019-03-18T05:46:08.178Z,3.30
2019-03-18T05:47:05.046Z,3.30
2019-03-18T05:48:05.018Z,3.30
2019-03-18T05:49:05.075Z,3.30
2019-03-18T05:50:07.624Z,3.30
2019-03-18T05:51:08.020Z,3.30
2019-03-18T05:52:07.521Z,3.30
2019-03-18T05:53:07.907Z,3.40
2019-03-18T05:54:04.764Z,3.30
2019-03-18T05:55:04.802Z,3.40
2019-03-18T05:56:04.761Z,3.40
2019-03-18T05:57:04.788Z,3.50
2019-03-18T05:58:10.076Z,3.50
2019-03-18T05:59:07.474Z,3.60
2019-03-18T06:00:05.471Z,3.70
2019-03-18T06:01:10.665Z,3.90
2019-03-18T06:02:05.575Z,3.90
2019-03-18T06:03:08.245Z,4.20
2019-03-18T06:04:07.694Z,4.40
2019-03-18T06:05:08.130Z,4.50
2019-03-18T06:06:07.514Z,4.50
2019-03-18T06:07:07.995Z,4.50
2019-03-18T06:08:04.959Z,4.50
2019-03-18T06:09:07.517Z,4.50
2019-03-18T06:10:05.377Z,4.50
2019-03-18T06:11:05.393Z,4.50
2019-03-18T06:12:05.450Z,4.50
2019-03-18T06:13:05.551Z,4.60
2019-03-18T06:14:07.312Z,4.80
2019-03-18T06:15:05.309Z,4.80
2019-03-18T06:16:05.384Z,5.00
2019-03-18T06:17:07.989Z,5.20
2019-03-18T06:18:07.368Z,5.40
2019-03-18T06:19:07.711Z,5.50
2019-03-18T06:20:08.114Z,5.60
2019-03-18T06:21:04.979Z,5.60
2019-03-18T06:22:05.135Z,5.80
2019-03-18T06:23:07.597Z,6.00
2019-03-18T06:24:06.481Z,6.00
2019-03-18T06:25:07.211Z,6.20
2019-03-18T06:26:07.570Z,6.30
2019-03-18T06:27:05.454Z,6.30
2019-03-18T06:28:05.441Z,6.40
2019-03-18T06:29:05.684Z,6.50
2019-03-18T06:30:04.732Z,6.60
2019-03-18T06:31:04.748Z,6.60
2019-03-18T06:32:07.342Z,6.80
2019-03-18T06:33:07.829Z,6.90
2019-03-18T06:34:07.405Z,7.00
2019-03-18T06:35:07.875Z,7.00
2019-03-18T06:36:07.371Z,7.10
2019-03-18T06:37:07.907Z,7.20
2019-03-18T06:38:09.866Z,7.20
2019-03-18T06:39:04.728Z,7.20
2019-03-18T06:40:04.781Z,7.30
2019-03-18T06:41:04.784Z,7.40
2019-03-18T06:42:04.997Z,7.40
2019-03-18T06:43:05.073Z,7.50
2019-03-18T06:44:05.489Z,7.60
2019-03-18T06:45:05.492Z,7.60
2019-03-18T06:46:05.491Z,7.70
2019-03-18T06:47:05.489Z,7.70
2019-03-18T06:48:05.542Z,7.80
2019-03-18T06:49:04.604Z,7.80
2019-03-18T06:50:04.643Z,7.90
2019-03-18T06:51:04.640Z,7.90
2019-03-18T06:52:07.338Z,7.90
2019-03-18T06:53:07.755Z,8.00
2019-03-18T06:54:05.647Z,8.00
2019-03-18T06:55:04.703Z,8.00
2019-03-18T06:56:04.689Z,8.10
2019-03-18T06:57:07.294Z,8.10
2019-03-18T06:58:07.837Z,8.20
2019-03-18T06:59:07.209Z,8.20
2019-03-18T07:00:06.932Z,8.20
2019-03-18T07:01:05.196Z,8.20
2019-03-18T07:02:05.113Z,8.30
2019-03-18T07:03:07.700Z,8.20
2019-03-18T07:04:08.080Z,8.20
2019-03-18T07:05:07.449Z,8.20
2019-03-18T07:06:05.308Z,8.20
2019-03-18T07:07:05.420Z,8.30
2019-03-18T07:08:05.492Z,8.30
2019-03-18T07:09:07.998Z,8.30
2019-03-18T07:10:05.257Z,8.20
2019-03-18T07:11:05.290Z,8.30
2019-03-18T07:12:05.277Z,8.20
2019-03-18T07:13:05.330Z,8.20
2019-03-18T07:14:07.864Z,8.30
2019-03-18T07:15:07.545Z,8.30
2019-03-18T07:16:05.478Z,8.30
2019-03-18T07:17:05.561Z,8.30
2019-03-18T07:18:17.416Z,8.30
2019-03-18T07:19:04.825Z,8.30
2019-03-18T07:20:04.978Z,8.30
2019-03-18T07:21:07.515Z,8.30
2019-03-18T07:22:07.953Z,8.30
2019-03-18T07:23:12.375Z,8.30
2019-03-18T07:24:05.226Z,8.30
2019-03-18T07:25:07.812Z,8.30
2019-03-18T07:26:04.718Z,8.30
2019-03-18T07:27:04.769Z,8.30
2019-03-18T07:28:04.705Z,8.20
2019-03-18T07:29:04.819Z,8.20
2019-03-18T07:30:05.079Z,8.10
2019-03-18T07:31:05.156Z,8.10
2019-03-18T07:32:07.797Z,8.10
2019-03-18T07:33:09.810Z,8.00
2019-03-18T07:34:04.723Z,8.00
2019-03-18T07:35:05.437Z,8.00
2019-03-18T07:36:08.323Z,8.10
2019-03-18T07:37:05.291Z,8.10
2019-03-18T07:38:07.836Z,8.20
2019-03-18T07:39:04.681Z,8.20
2019-03-18T07:40:04.621Z,8.20
2019-03-18T07:41:05.582Z,8.20
2019-03-18T07:42:05.627Z,8.30
2019-03-18T07:43:04.786Z,8.30
2019-03-18T07:44:07.649Z,8.30
2019-03-18T07:45:08.098Z,8.30
2019-03-18T07:46:04.937Z,8.30
2019-03-18T07:47:07.463Z,8.20
2019-03-18T07:48:06.547Z,8.10
2019-03-18T07:49:07.420Z,8.00
2019-03-18T07:50:05.298Z,7.90
2019-03-18T07:51:05.267Z,7.80
2019-03-18T07:52:05.270Z,7.80
2019-03-18T07:53:05.261Z,7.60
2019-03-18T07:54:05.309Z,7.50
2019-03-18T07:55:07.819Z,7.30
2019-03-18T07:56:07.392Z,7.20
2019-03-18T07:57:05.246Z,7.10
2019-03-18T07:58:05.203Z,7.10
2019-03-18T07:59:05.225Z,7.00
2019-03-18T08:00:05.218Z,6.90
2019-03-18T08:01:05.293Z,6.70
2019-03-18T08:02:07.840Z,6.60
2019-03-18T08:03:04.685Z,6.60
2019-03-18T08:04:07.741Z,6.40
2019-03-18T08:05:04.595Z,6.40
2019-03-18T08:06:08.109Z,6.30
2019-03-18T08:07:07.571Z,6.30
2019-03-18T08:08:05.463Z,6.30
2019-03-18T08:09:05.469Z,6.20
2019-03-18T08:10:07.993Z,6.20
2019-03-18T08:11:07.410Z,6.10
2019-03-18T08:12:05.254Z,6.10
2019-03-18T08:13:07.864Z,6.10
2019-03-18T08:14:04.697Z,6.10
2019-03-18T08:15:04.719Z,6.10
2019-03-18T08:16:09.741Z,6.10
2019-03-18T08:17:08.179Z,6.00
2019-03-18T08:18:05.028Z,6.00
2019-03-18T08:19:07.647Z,6.00
2019-03-18T08:20:05.660Z,5.90
2019-03-18T08:21:04.641Z,6.00
2019-03-18T08:22:04.746Z,6.00
2019-03-18T08:23:04.821Z,6.00
2019-03-18T08:24:04.789Z,6.00
2019-03-18T08:25:04.848Z,5.90
2019-03-18T08:26:07.405Z,5.90
2019-03-18T08:27:05.291Z,5.90
2019-03-18T08:28:05.266Z,5.90
2019-03-18T08:29:05.260Z,5.90
2019-03-18T08:30:08.113Z,5.80
2019-03-18T08:31:05.014Z,5.80
2019-03-18T08:32:05.025Z,5.80
2019-03-18T08:33:05.032Z,5.80
2019-03-18T08:34:07.746Z,5.80
2019-03-18T08:35:04.632Z,5.80
2019-03-18T08:36:04.692Z,5.80
2019-03-18T08:37:07.224Z,5.70
2019-03-18T08:38:05.069Z,5.70
2019-03-18T08:39:05.070Z,5.70
2019-03-18T08:40:07.614Z,5.70
2019-03-18T08:41:05.472Z,5.70
2019-03-18T08:42:05.474Z,5.70
2019-03-18T08:43:05.582Z,5.70
2019-03-18T08:44:04.869Z,5.70
2019-03-18T08:45:04.849Z,5.70
2019-03-18T08:46:07.365Z,5.70
2019-03-18T08:47:05.252Z,5.70
2019-03-18T08:48:05.226Z,5.70
2019-03-18T08:49:07.993Z,5.70
2019-03-18T08:50:04.853Z,5.70
2019-03-18T08:51:04.870Z,5.70
2019-03-18T08:52:07.479Z,5.70
2019-03-18T08:53:07.901Z,5.70
2019-03-18T08:54:09.924Z,5.70
2019-03-18T08:55:07.351Z,5.70
2019-03-18T08:56:07.795Z,5.70
2019-03-18T08:57:04.778Z,5.70
2019-03-18T08:58:04.845Z,5.70
2019-03-18T08:59:07.456Z,5.70
2019-03-18T09:00:05.428Z,5.70
2019-03-18T09:01:08.004Z,5.70
2019-03-18T09:02:07.400Z,5.80
2019-03-18T09:03:05.227Z,5.80
2019-03-18T09:04:05.201Z,5.80
2019-03-18T09:05:05.372Z,5.80
2019-03-18T09:06:05.618Z,5.80
2019-03-18T09:07:09.928Z,5.80
2019-03-18T09:08:07.590Z,5.80
2019-03-18T09:09:05.599Z,5.80
2019-03-18T09:10:05.697Z,5.90
2019-03-18T09:11:04.926Z,5.90
2019-03-18T09:12:05.105Z,5.90
2019-03-18T09:13:05.266Z,5.90
2019-03-18T09:14:08.006Z,6.00
2019-03-18T09:15:05.096Z,6.00
2019-03-18T09:16:05.225Z,6.00
2019-03-18T09:17:05.495Z,6.00
2019-03-18T09:18:08.052Z,6.10
2019-03-18T09:19:08.806Z,6.10
2019-03-18T09:20:05.292Z,6.10
2019-03-18T09:21:05.339Z,6.10
2019-03-18T09:22:05.623Z,6.10
2019-03-18T09:23:04.753Z,6.10
2019-03-18T09:24:07.390Z,6.20
2019-03-18T09:25:05.314Z,6.10
2019-03-18T09:26:05.411Z,6.20
2019-03-18T09:27:05.552Z,6.20
2019-03-18T09:28:08.207Z,6.20
2019-03-18T09:29:07.719Z,6.20
2019-03-18T09:30:04.653Z,6.20
2019-03-18T09:31:07.312Z,6.20
2019-03-18T09:32:05.431Z,6.20
2019-03-18T09:33:05.571Z,6.30
2019-03-18T09:34:05.792Z,6.30
2019-03-18T09:35:04.964Z,6.30
2019-03-18T09:36:10.184Z,6.30
2019-03-18T09:37:05.109Z,6.30
2019-03-18T09:38:07.823Z,6.20
2019-03-18T09:39:04.751Z,6.20
2019-03-18T09:40:04.844Z,6.20
2019-03-18T09:41:07.425Z,6.20
2019-03-18T09:42:05.402Z,6.20
2019-03-18T09:43:05.616Z,6.10
2019-03-18T09:44:07.649Z,6.10
2019-03-18T09:45:05.618Z,6.10
2019-03-18T09:46:07.207Z,6.00
2019-03-18T09:47:05.205Z,6.00
2019-03-18T09:48:10.476Z,6.00
2019-03-18T09:49:20.511Z,6.00
2019-03-18T09:50:04.979Z,6.00
2019-03-18T09:51:05.182Z,6.00
2019-03-18T09:52:07.883Z,6.00
2019-03-18T09:53:07.424Z,6.10
2019-03-18T09:54:05.394Z,6.00
2019-03-18T09:55:05.496Z,6.10
2019-03-18T09:56:05.574Z,6.10
2019-03-18T09:57:05.802Z,6.00
2019-03-18T09:58:05.026Z,6.00
2019-03-18T09:59:05.124Z,6.00
2019-03-18T10:00:05.251Z,6.00
2019-03-18T10:01:07.967Z,6.00
2019-03-18T10:02:07.682Z,6.00
2019-03-18T10:03:08.284Z,6.00
2019-03-18T10:04:05.339Z,6.00
2019-03-18T10:05:05.435Z,6.00
2019-03-18T10:06:05.556Z,6.00
2019-03-18T10:07:04.790Z,6.00
2019-03-18T10:08:04.962Z,6.00
2019-03-18T10:09:05.035Z,6.00
2019-03-18T10:10:05.156Z,6.00
2019-03-18T10:11:07.873Z,6.00
2019-03-18T10:12:04.841Z,5.90
2019-03-18T10:13:04.937Z,5.90
2019-03-18T10:14:05.051Z,5.90
2019-03-18T10:15:07.655Z,5.90
2019-03-18T10:16:05.593Z,5.90
2019-03-18T10:17:09.296Z,5.90
2019-03-18T10:18:07.806Z,6.00
2019-03-18T10:19:07.483Z,6.10
2019-03-18T10:20:05.544Z,6.10
2019-03-18T10:21:07.395Z,6.30
2019-03-18T10:22:05.328Z,6.30
2019-03-18T10:23:05.442Z,6.40
2019-03-18T10:24:05.499Z,6.40
2019-03-18T10:25:05.620Z,6.50
2019-03-18T10:26:04.846Z,6.50
2019-03-18T10:27:07.488Z,6.60
2019-03-18T10:28:05.418Z,6.60
2019-03-18T10:29:05.734Z,6.60
2019-03-18T10:30:04.907Z,6.60
2019-03-18T10:31:07.527Z,6.60
2019-03-18T10:32:05.546Z,6.60
2019-03-18T10:33:04.722Z,6.60
2019-03-18T10:34:07.504Z,6.50
2019-03-18T10:35:05.460Z,6.50
2019-03-18T10:36:08.079Z,6.50
2019-03-18T10:37:05.015Z,6.50
2019-03-18T10:38:05.100Z,6.50
2019-03-18T10:39:07.733Z,6.60
2019-03-18T10:40:07.453Z,6.60
2019-03-18T10:41:05.498Z,6.60
2019-03-18T10:42:08.135Z,6.60
2019-03-18T10:43:05.045Z,6.60
2019-03-18T10:44:05.188Z,6.60
2019-03-18T10:45:05.584Z,6.60
2019-03-18T10:46:04.638Z,6.60
2019-03-18T10:47:04.778Z,6.60
2019-03-18T10:48:04.849Z,6.60
2019-03-18T10:49:05.166Z,6.60
2019-03-18T10:50:05.452Z,6.60
2019-03-18T10:51:05.592Z,6.60
2019-03-18T10:52:05.664Z,6.60
2019-03-18T10:53:07.276Z,6.60
2019-03-18T10:54:10.404Z,6.70
2019-03-18T10:55:05.484Z,6.70
2019-03-18T10:56:07.898Z,6.80
2019-03-18T10:57:05.497Z,6.80
2019-03-18T10:58:05.768Z,6.80
2019-03-18T10:59:09.937Z,6.90
2019-03-18T11:00:04.920Z,6.90
2019-03-18T11:01:07.680Z,6.90
2019-03-18T11:02:07.240Z,7.00
2019-03-18T11:03:10.281Z,7.00
2019-03-18T11:04:05.326Z,7.00
2019-03-18T11:05:08.404Z,7.10
2019-03-18T11:06:05.679Z,7.10
2019-03-18T11:07:04.889Z,7.10
2019-03-18T11:08:05.122Z,7.10
2019-03-18T11:09:07.844Z,7.10
2019-03-18T11:10:07.412Z,7.00
2019-03-18T11:11:08.010Z,7.00
2019-03-18T11:12:05.071Z,7.00
2019-03-18T11:13:05.208Z,7.00
2019-03-18T11:14:07.996Z,7.00
2019-03-18T11:15:04.936Z,7.00
2019-03-18T11:16:07.662Z,7.00
2019-03-18T11:17:08.176Z,7.00
2019-03-18T11:18:05.277Z,7.00
2019-03-18T11:19:08.180Z,7.00
2019-03-18T11:20:05.154Z,7.00
2019-03-18T11:21:07.798Z,6.90
2019-03-18T11:22:04.789Z,6.90
2019-03-18T11:23:07.417Z,6.90
2019-03-18T11:24:05.358Z,6.90
2019-03-18T11:25:08.115Z,6.90
2019-03-18T11:26:05.209Z,6.90
2019-03-18T11:27:07.996Z,6.90
2019-03-18T11:28:07.585Z,6.80
2019-03-18T11:29:10.710Z,6.80
2019-03-18T11:30:04.750Z,6.80
2019-03-18T11:31:09.966Z,6.80
2019-03-18T11:32:05.389Z,6.80
2019-03-18T11:33:07.991Z,6.80
2019-03-18T11:34:04.943Z,6.80
2019-03-18T11:35:07.670Z,6.80
2019-03-18T11:36:09.803Z,6.90
2019-03-18T11:37:04.740Z,6.90
2019-03-18T11:38:04.853Z,7.00
2019-03-18T11:39:05.250Z,7.10
2019-03-18T11:40:07.910Z,7.20
2019-03-18T11:41:04.883Z,7.20
2019-03-18T11:42:05.103Z,7.40
2019-03-18T11:43:10.301Z,7.60
2019-03-18T11:44:10.446Z,7.60
2019-03-18T11:45:07.985Z,7.70
2019-03-18T11:46:05.454Z,7.70
2019-03-18T11:47:05.542Z,7.80
2019-03-18T11:48:05.608Z,7.90
2019-03-18T11:49:04.912Z,7.90
2019-03-18T11:50:10.665Z,8.10
2019-03-18T11:51:04.931Z,8.10
2019-03-18T11:52:05.051Z,8.20
2019-03-18T11:53:14.025Z,8.30
2019-03-18T11:54:04.896Z,8.40
2019-03-18T11:55:10.193Z,8.40
2019-03-18T11:56:05.192Z,8.40
2019-03-18T11:57:05.324Z,8.50
2019-03-18T11:58:05.487Z,8.60
2019-03-18T11:59:10.717Z,8.70
2019-03-18T12:00:05.667Z,8.70
2019-03-18T12:01:07.326Z,8.70
2019-03-18T12:02:05.297Z,8.70
2019-03-18T12:03:10.561Z,8.70
2019-03-18T12:04:10.750Z,8.60
2019-03-18T12:05:04.721Z,8.60
2019-03-18T12:06:07.374Z,8.60
2019-03-18T12:07:05.337Z,8.50
2019-03-18T12:08:10.554Z,8.40
2019-03-18T12:09:05.711Z,8.40
2019-03-18T12:10:04.815Z,8.40
2019-03-18T12:11:07.554Z,8.20
2019-03-18T12:12:05.825Z,8.20
2019-03-18T12:13:07.317Z,8.10
2019-03-18T12:14:05.330Z,8.10
2019-03-18T12:15:13.117Z,8.00
2019-03-18T12:16:08.217Z,8.00
2019-03-18T12:17:05.313Z,8.00
2019-03-18T12:18:08.039Z,7.90
2019-03-18T12:19:05.058Z,7.90
2019-03-18T12:20:07.747Z,7.90
2019-03-18T12:21:04.861Z,7.90
2019-03-18T12:22:05.037Z,7.90
2019-03-18T12:23:07.861Z,7.80
2019-03-18T12:24:04.990Z,7.80
2019-03-18T12:25:05.203Z,7.80
2019-03-18T12:26:05.379Z,7.80
2019-03-18T12:27:05.710Z,7.80
2019-03-18T12:28:05.320Z,7.80
2019-03-18T12:29:08.151Z,7.70
2019-03-18T12:30:05.038Z,7.80
2019-03-18T12:31:07.665Z,7.70
2019-03-18T12:32:05.581Z,7.70
2019-03-18T12:33:07.213Z,7.70
2019-03-18T12:34:05.142Z,7.70
2019-03-18T12:35:05.260Z,7.70
2019-03-18T12:36:05.512Z,7.70
2019-03-18T12:37:04.831Z,7.70
2019-03-18T12:38:05.005Z,7.70
2019-03-18T12:39:07.667Z,7.80
2019-03-18T12:40:05.711Z,7.80
2019-03-18T12:41:04.927Z,7.80
2019-03-18T12:42:07.651Z,7.80
2019-03-18T12:43:05.778Z,7.80
2019-03-18T12:44:05.045Z,7.80
2019-03-18T12:45:08.867Z,7.90
2019-03-18T12:46:05.084Z,7.90
2019-03-18T12:47:07.737Z,7.90
2019-03-18T12:48:04.765Z,7.80
2019-03-18T12:49:07.595Z,7.80
2019-03-18T12:50:05.696Z,7.80
2019-03-18T12:51:04.936Z,7.80
2019-03-18T12:52:05.254Z,7.70
2019-03-18T12:53:05.445Z,7.70
2019-03-18T12:54:05.573Z,7.60
2019-03-18T12:55:04.712Z,7.50
2019-03-18T12:56:04.839Z,7.30
2019-03-18T12:57:05.321Z,7.20
2019-03-18T12:58:05.518Z,7.10
2019-03-18T12:59:08.160Z,6.90
2019-03-18T13:00:05.117Z,6.90
2019-03-18T13:01:12.317Z,6.80
2019-03-18T13:02:05.014Z,6.80
2019-03-18T13:03:05.138Z,6.70
2019-03-18T13:04:07.794Z,6.70
2019-03-18T13:05:04.807Z,6.60
2019-03-18T13:06:05.016Z,6.60
2019-03-18T13:07:07.721Z,6.60
2019-03-18T13:08:07.275Z,6.60
2019-03-18T13:09:05.405Z,6.60
2019-03-18T13:10:08.042Z,6.50
2019-03-18T13:11:05.035Z,6.50
2019-03-18T13:12:05.236Z,6.50
2019-03-18T13:13:07.884Z,6.50
2019-03-18T13:14:04.860Z,6.50
2019-03-18T13:15:04.928Z,6.50
2019-03-18T13:16:05.117Z,6.50
2019-03-18T13:17:05.409Z,6.50
2019-03-18T13:18:05.691Z,6.40